sensor_id;sensor_type;location;lat;lon;timestamp;P1;durP1;ratioP1;P2;durP2;ratioP2
36189;SDS011;22232;50.914;13.858;2024-02-15T00:01:43;1.67;;;1.52;;
36189;SDS011;22232;50.914;13.858;2024-02-15T00:04:10;1.90;;;1.02;;
36189;SDS011;22232;50.914;13.858;2024-02-15T00:06:38;1.13;;;1.02;;
36189;SDS011;22232;50.914;13.858;2024-02-15T00:09:06;1.52;;;1.20;;
36189;SDS011;22232;50.914;13.858;2024-02-15T00:11:33;2.45;;;1.58;;
36189;SDS011;22232;50.914;13.858;2024-02-15T00:14:01;2.58;;;1.20;;
36189;SDS011;22232;50.914;13.858;2024-02-15T00:16:29;4.30;;;1.23;;
36189;SDS011;22232;50.914;13.858;2024-02-15T00:18:56;1.55;;;1.00;;
36189;SDS011;22232;50.914;13.858;2024-02-15T00:21:27;2.83;;;1.00;;
36189;SDS011;22232;50.914;13.858;2024-02-15T00:23:54;1.58;;;0.85;;
36189;SDS011;22232;50.914;13.858;2024-02-15T00:26:24;1.95;;;0.82;;
36189;SDS011;22232;50.914;13.858;2024-02-15T00:28:51;1.23;;;1.00;;
36189;SDS011;22232;50.914;13.858;2024-02-15T00:31:19;2.42;;;0.85;;
36189;SDS011;22232;50.914;13.858;2024-02-15T00:33:47;1.13;;;0.80;;
36189;SDS011;22232;50.914;13.858;2024-02-15T00:36:15;1.05;;;0.73;;
36189;SDS011;22232;50.914;13.858;2024-02-15T00:38:43;1.33;;;0.68;;
36189;SDS011;22232;50.914;13.858;2024-02-15T00:41:10;0.40;;;0.40;;
36189;SDS011;22232;50.914;13.858;2024-02-15T00:43:38;0.50;;;0.50;;
36189;SDS011;22232;50.914;13.858;2024-02-15T00:46:06;0.77;;;0.65;;
36189;SDS011;22232;50.914;13.858;2024-02-15T00:48:34;0.82;;;0.70;;
36189;SDS011;22232;50.914;13.858;2024-02-15T00:51:01;1.63;;;0.70;;
36189;SDS011;22232;50.914;13.858;2024-02-15T00:53:30;0.85;;;0.63;;
36189;SDS011;22232;50.914;13.858;2024-02-15T00:55:58;1.45;;;0.80;;
36189;SDS011;22232;50.914;13.858;2024-02-15T00:58:26;0.65;;;0.60;;
36189;SDS011;22232;50.914;13.858;2024-02-15T01:00:54;0.40;;;0.40;;
36189;SDS011;22232;50.914;13.858;2024-02-15T01:03:21;0.63;;;0.45;;
36189;SDS011;22232;50.914;13.858;2024-02-15T01:05:50;0.68;;;0.55;;
36189;SDS011;22232;50.914;13.858;2024-02-15T01:08:18;0.68;;;0.30;;
36189;SDS011;22232;50.914;13.858;2024-02-15T01:10:47;0.93;;;0.40;;
36189;SDS011;22232;50.914;13.858;2024-02-15T01:13:15;0.63;;;0.60;;
36189;SDS011;22232;50.914;13.858;2024-02-15T01:15:43;0.50;;;0.32;;
36189;SDS011;22232;50.914;13.858;2024-02-15T01:18:10;0.40;;;0.40;;
36189;SDS011;22232;50.914;13.858;2024-02-15T01:20:38;0.35;;;0.35;;
36189;SDS011;22232;50.914;13.858;2024-02-15T01:23:06;0.50;;;0.30;;
36189;SDS011;22232;50.914;13.858;2024-02-15T01:25:34;0.40;;;0.40;;
36189;SDS011;22232;50.914;13.858;2024-02-15T01:28:02;0.60;;;0.32;;
36189;SDS011;22232;50.914;13.858;2024-02-15T01:30:30;2.92;;;0.43;;
36189;SDS011;22232;50.914;13.858;2024-02-15T01:32:59;0.95;;;0.30;;
36189;SDS011;22232;50.914;13.858;2024-02-15T01:35:27;3.30;;;0.40;;
36189;SDS011;22232;50.914;13.858;2024-02-15T01:37:54;0.38;;;0.32;;
36189;SDS011;22232;50.914;13.858;2024-02-15T01:40:22;0.60;;;0.28;;
36189;SDS011;22232;50.914;13.858;2024-02-15T01:42:49;0.30;;;0.30;;
36189;SDS011;22232;50.914;13.858;2024-02-15T01:45:17;0.38;;;0.38;;
36189;SDS011;22232;50.914;13.858;2024-02-15T01:47:47;0.32;;;0.32;;
36189;SDS011;22232;50.914;13.858;2024-02-15T01:50:16;0.40;;;0.30;;
36189;SDS011;22232;50.914;13.858;2024-02-15T01:52:44;0.30;;;0.30;;
36189;SDS011;22232;50.914;13.858;2024-02-15T01:55:15;2.20;;;0.30;;
36189;SDS011;22232;50.914;13.858;2024-02-15T01:57:45;1.27;;;0.40;;
36189;SDS011;22232;50.914;13.858;2024-02-15T02:00:13;0.30;;;0.30;;
36189;SDS011;22232;50.914;13.858;2024-02-15T02:02:45;0.20;;;0.20;;
36189;SDS011;22232;50.914;13.858;2024-02-15T02:05:14;0.20;;;0.20;;
36189;SDS011;22232;50.914;13.858;2024-02-15T02:07:41;0.30;;;0.30;;
36189;SDS011;22232;50.914;13.858;2024-02-15T02:10:09;0.22;;;0.22;;
36189;SDS011;22232;50.914;13.858;2024-02-15T02:12:41;1.55;;;0.30;;
36189;SDS011;22232;50.914;13.858;2024-02-15T02:15:09;0.40;;;0.30;;
36189;SDS011;22232;50.914;13.858;2024-02-15T02:17:38;0.20;;;0.20;;
36189;SDS011;22232;50.914;13.858;2024-02-15T02:20:07;0.30;;;0.30;;
36189;SDS011;22232;50.914;13.858;2024-02-15T02:22:38;0.90;;;0.30;;
36189;SDS011;22232;50.914;13.858;2024-02-15T02:25:06;0.30;;;0.30;;
36189;SDS011;22232;50.914;13.858;2024-02-15T02:27:35;0.98;;;0.30;;
36189;SDS011;22232;50.914;13.858;2024-02-15T02:30:04;0.32;;;0.32;;
36189;SDS011;22232;50.914;13.858;2024-02-15T02:32:36;2.33;;;0.47;;
36189;SDS011;22232;50.914;13.858;2024-02-15T02:35:06;0.30;;;0.30;;
36189;SDS011;22232;50.914;13.858;2024-02-15T02:37:34;0.63;;;0.60;;
36189;SDS011;22232;50.914;13.858;2024-02-15T02:40:04;0.65;;;0.57;;
36189;SDS011;22232;50.914;13.858;2024-02-15T02:42:36;0.40;;;0.30;;
36189;SDS011;22232;50.914;13.858;2024-02-15T02:45:13;0.38;;;0.38;;
36189;SDS011;22232;50.914;13.858;2024-02-15T02:47:40;0.77;;;0.40;;
36189;SDS011;22232;50.914;13.858;2024-02-15T02:50:08;0.40;;;0.40;;
36189;SDS011;22232;50.914;13.858;2024-02-15T02:52:36;0.40;;;0.40;;
36189;SDS011;22232;50.914;13.858;2024-02-15T02:55:06;0.68;;;0.40;;
36189;SDS011;22232;50.914;13.858;2024-02-15T02:57:35;0.52;;;0.52;;
36189;SDS011;22232;50.914;13.858;2024-02-15T03:00:07;1.52;;;0.50;;
36189;SDS011;22232;50.914;13.858;2024-02-15T03:02:40;0.60;;;0.60;;
36189;SDS011;22232;50.914;13.858;2024-02-15T03:05:07;1.25;;;0.40;;
36189;SDS011;22232;50.914;13.858;2024-02-15T03:07:36;0.60;;;0.50;;
36189;SDS011;22232;50.914;13.858;2024-02-15T03:10:04;0.68;;;0.60;;
36189;SDS011;22232;50.914;13.858;2024-02-15T03:12:35;0.60;;;0.60;;
36189;SDS011;22232;50.914;13.858;2024-02-15T03:15:04;0.52;;;0.52;;
36189;SDS011;22232;50.914;13.858;2024-02-15T03:17:41;0.85;;;0.70;;
36189;SDS011;22232;50.914;13.858;2024-02-15T03:20:11;0.60;;;0.60;;
36189;SDS011;22232;50.914;13.858;2024-02-15T03:22:50;0.65;;;0.65;;
36189;SDS011;22232;50.914;13.858;2024-02-15T03:25:22;0.82;;;0.75;;
36189;SDS011;22232;50.914;13.858;2024-02-15T03:27:53;0.75;;;0.75;;
36189;SDS011;22232;50.914;13.858;2024-02-15T03:30:22;1.58;;;0.60;;
36189;SDS011;22232;50.914;13.858;2024-02-15T03:32:51;0.75;;;0.75;;
36189;SDS011;22232;50.914;13.858;2024-02-15T03:35:21;0.70;;;0.70;;
36189;SDS011;22232;50.914;13.858;2024-02-15T03:37:50;0.70;;;0.70;;
36189;SDS011;22232;50.914;13.858;2024-02-15T03:40:19;0.95;;;0.80;;
36189;SDS011;22232;50.914;13.858;2024-02-15T03:42:47;0.80;;;0.80;;
36189;SDS011;22232;50.914;13.858;2024-02-15T03:45:15;2.78;;;1.08;;
36189;SDS011;22232;50.914;13.858;2024-02-15T03:47:43;0.85;;;0.85;;
36189;SDS011;22232;50.914;13.858;2024-02-15T03:50:11;1.25;;;0.85;;
36189;SDS011;22232;50.914;13.858;2024-02-15T03:52:42;0.80;;;0.80;;
36189;SDS011;22232;50.914;13.858;2024-02-15T03:55:11;0.80;;;0.80;;
36189;SDS011;22232;50.914;13.858;2024-02-15T03:57:40;0.73;;;0.73;;
36189;SDS011;22232;50.914;13.858;2024-02-15T04:00:14;1.25;;;0.90;;
36189;SDS011;22232;50.914;13.858;2024-02-15T04:02:42;0.82;;;0.82;;
36189;SDS011;22232;50.914;13.858;2024-02-15T04:05:10;1.00;;;0.77;;
36189;SDS011;22232;50.914;13.858;2024-02-15T04:07:39;1.25;;;1.00;;
36189;SDS011;22232;50.914;13.858;2024-02-15T04:10:07;1.15;;;1.05;;
36189;SDS011;22232;50.914;13.858;2024-02-15T04:12:36;0.90;;;0.90;;
36189;SDS011;22232;50.914;13.858;2024-02-15T04:15:04;0.90;;;0.90;;
36189;SDS011;22232;50.914;13.858;2024-02-15T04:17:40;0.80;;;0.80;;
36189;SDS011;22232;50.914;13.858;2024-02-15T04:20:10;0.80;;;0.80;;
36189;SDS011;22232;50.914;13.858;2024-02-15T04:22:39;1.10;;;1.00;;
36189;SDS011;22232;50.914;13.858;2024-02-15T04:25:10;0.98;;;0.93;;
36189;SDS011;22232;50.914;13.858;2024-02-15T04:27:45;0.70;;;0.70;;
36189;SDS011;22232;50.914;13.858;2024-02-15T04:30:14;0.80;;;0.80;;
36189;SDS011;22232;50.914;13.858;2024-02-15T04:32:43;1.27;;;1.17;;
36189;SDS011;22232;50.914;13.858;2024-02-15T04:35:12;0.75;;;0.75;;
36189;SDS011;22232;50.914;13.858;2024-02-15T04:37:41;0.88;;;0.88;;
36189;SDS011;22232;50.914;13.858;2024-02-15T04:40:09;1.10;;;0.80;;
36189;SDS011;22232;50.914;13.858;2024-02-15T04:42:38;0.70;;;0.70;;
36189;SDS011;22232;50.914;13.858;2024-02-15T04:45:12;0.90;;;0.90;;
36189;SDS011;22232;50.914;13.858;2024-02-15T04:47:43;0.95;;;0.90;;
36189;SDS011;22232;50.914;13.858;2024-02-15T04:50:13;0.90;;;0.90;;
36189;SDS011;22232;50.914;13.858;2024-02-15T04:52:42;1.70;;;1.30;;
36189;SDS011;22232;50.914;13.858;2024-02-15T04:55:12;1.13;;;1.02;;
36189;SDS011;22232;50.914;13.858;2024-02-15T04:57:40;1.20;;;1.10;;
36189;SDS011;22232;50.914;13.858;2024-02-15T05:00:08;1.73;;;1.15;;
36189;SDS011;22232;50.914;13.858;2024-02-15T05:02:38;1.20;;;1.10;;
36189;SDS011;22232;50.914;13.858;2024-02-15T05:05:09;1.33;;;1.23;;
36189;SDS011;22232;50.914;13.858;2024-02-15T05:07:37;0.95;;;0.88;;
36189;SDS011;22232;50.914;13.858;2024-02-15T05:10:07;1.05;;;0.93;;
36189;SDS011;22232;50.914;13.858;2024-02-15T05:12:39;1.23;;;0.90;;
36189;SDS011;22232;50.914;13.858;2024-02-15T05:15:15;0.90;;;0.90;;
36189;SDS011;22232;50.914;13.858;2024-02-15T05:17:46;0.88;;;0.88;;
36189;SDS011;22232;50.914;13.858;2024-02-15T05:20:16;0.80;;;0.80;;
36189;SDS011;22232;50.914;13.858;2024-02-15T05:22:43;0.80;;;0.80;;
36189;SDS011;22232;50.914;13.858;2024-02-15T05:25:17;1.02;;;0.95;;
36189;SDS011;22232;50.914;13.858;2024-02-15T05:27:56;0.82;;;0.82;;
36189;SDS011;22232;50.914;13.858;2024-02-15T05:30:25;1.73;;;0.93;;
36189;SDS011;22232;50.914;13.858;2024-02-15T05:32:53;0.90;;;0.90;;
36189;SDS011;22232;50.914;13.858;2024-02-15T05:35:22;1.08;;;0.82;;
36189;SDS011;22232;50.914;13.858;2024-02-15T05:37:50;0.68;;;0.68;;
36189;SDS011;22232;50.914;13.858;2024-02-15T05:40:20;3.33;;;0.70;;
36189;SDS011;22232;50.914;13.858;2024-02-15T05:42:48;0.50;;;0.50;;
36189;SDS011;22232;50.914;13.858;2024-02-15T05:47:51;0.70;;;0.60;;
36189;SDS011;22232;50.914;13.858;2024-02-15T05:50:19;1.25;;;0.60;;
36189;SDS011;22232;50.914;13.858;2024-02-15T05:52:48;0.60;;;0.60;;
36189;SDS011;22232;50.914;13.858;2024-02-15T05:55:16;0.70;;;0.57;;
36189;SDS011;22232;50.914;13.858;2024-02-15T05:57:44;1.30;;;1.10;;
36189;SDS011;22232;50.914;13.858;2024-02-15T06:00:12;4.55;;;2.50;;
36189;SDS011;22232;50.914;13.858;2024-02-15T06:02:49;3.00;;;2.17;;
36189;SDS011;22232;50.914;13.858;2024-02-15T06:05:18;1.85;;;1.23;;
36189;SDS011;22232;50.914;13.858;2024-02-15T06:07:47;0.68;;;0.68;;
36189;SDS011;22232;50.914;13.858;2024-02-15T06:10:15;0.70;;;0.70;;
36189;SDS011;22232;50.914;13.858;2024-02-15T06:12:43;0.50;;;0.50;;
36189;SDS011;22232;50.914;13.858;2024-02-15T06:15:11;0.57;;;0.57;;
36189;SDS011;22232;50.914;13.858;2024-02-15T06:17:43;0.55;;;0.52;;
36189;SDS011;22232;50.914;13.858;2024-02-15T06:20:12;0.68;;;0.47;;
36189;SDS011;22232;50.914;13.858;2024-02-15T06:22:46;0.70;;;0.70;;
36189;SDS011;22232;50.914;13.858;2024-02-15T06:25:14;0.70;;;0.70;;
36189;SDS011;22232;50.914;13.858;2024-02-15T06:27:42;0.65;;;0.65;;
36189;SDS011;22232;50.914;13.858;2024-02-15T06:30:10;0.60;;;0.60;;
36189;SDS011;22232;50.914;13.858;2024-02-15T06:32:57;0.80;;;0.80;;
36189;SDS011;22232;50.914;13.858;2024-02-15T06:35:44;0.70;;;0.70;;
36189;SDS011;22232;50.914;13.858;2024-02-15T06:38:30;1.08;;;1.00;;
36189;SDS011;22232;50.914;13.858;2024-02-15T06:41:16;0.90;;;0.80;;
36189;SDS011;22232;50.914;13.858;2024-02-15T06:43:48;0.98;;;0.88;;
36189;SDS011;22232;50.914;13.858;2024-02-15T06:46:15;0.68;;;0.68;;
36189;SDS011;22232;50.914;13.858;2024-02-15T06:48:43;1.10;;;0.80;;
36189;SDS011;22232;50.914;13.858;2024-02-15T06:51:12;0.82;;;0.82;;
36189;SDS011;22232;50.914;13.858;2024-02-15T06:53:43;1.77;;;0.70;;
36189;SDS011;22232;50.914;13.858;2024-02-15T06:56:10;0.70;;;0.70;;
36189;SDS011;22232;50.914;13.858;2024-02-15T06:58:39;2.42;;;0.80;;
36189;SDS011;22232;50.914;13.858;2024-02-15T07:01:10;0.60;;;0.60;;
36189;SDS011;22232;50.914;13.858;2024-02-15T07:03:40;0.80;;;0.80;;
36189;SDS011;22232;50.914;13.858;2024-02-15T07:06:08;0.85;;;0.65;;
36189;SDS011;22232;50.914;13.858;2024-02-15T07:08:36;1.27;;;0.73;;
36189;SDS011;22232;50.914;13.858;2024-02-15T07:11:04;0.80;;;0.80;;
36189;SDS011;22232;50.914;13.858;2024-02-15T07:13:31;0.77;;;0.75;;
36189;SDS011;22232;50.914;13.858;2024-02-15T07:15:59;0.80;;;0.80;;
36189;SDS011;22232;50.914;13.858;2024-02-15T07:18:27;0.80;;;0.80;;
36189;SDS011;22232;50.914;13.858;2024-02-15T07:20:56;1.02;;;0.75;;
36189;SDS011;22232;50.914;13.858;2024-02-15T07:23:27;1.02;;;0.93;;
36189;SDS011;22232;50.914;13.858;2024-02-15T07:25:55;0.95;;;0.95;;
36189;SDS011;22232;50.914;13.858;2024-02-15T07:28:23;1.58;;;1.10;;
36189;SDS011;22232;50.914;13.858;2024-02-15T07:30:54;1.77;;;1.00;;
36189;SDS011;22232;50.914;13.858;2024-02-15T07:33:22;0.95;;;0.95;;
36189;SDS011;22232;50.914;13.858;2024-02-15T07:35:51;0.80;;;0.80;;
36189;SDS011;22232;50.914;13.858;2024-02-15T07:38:19;0.85;;;0.85;;
36189;SDS011;22232;50.914;13.858;2024-02-15T07:40:50;0.80;;;0.80;;
36189;SDS011;22232;50.914;13.858;2024-02-15T07:43:17;1.00;;;0.98;;
36189;SDS011;22232;50.914;13.858;2024-02-15T07:45:45;1.55;;;1.30;;
36189;SDS011;22232;50.914;13.858;2024-02-15T07:48:15;1.67;;;1.48;;
36189;SDS011;22232;50.914;13.858;2024-02-15T07:50:43;1.42;;;1.27;;
36189;SDS011;22232;50.914;13.858;2024-02-15T07:53:12;1.20;;;1.10;;
36189;SDS011;22232;50.914;13.858;2024-02-15T07:55:40;1.30;;;1.20;;
36189;SDS011;22232;50.914;13.858;2024-02-15T07:58:09;2.08;;;0.90;;
36189;SDS011;22232;50.914;13.858;2024-02-15T08:00:37;0.90;;;0.90;;
36189;SDS011;22232;50.914;13.858;2024-02-15T08:03:05;2.50;;;1.10;;
36189;SDS011;22232;50.914;13.858;2024-02-15T08:05:34;1.67;;;1.30;;
36189;SDS011;22232;50.914;13.858;2024-02-15T08:08:04;1.27;;;1.17;;
36189;SDS011;22232;50.914;13.858;2024-02-15T08:10:31;3.10;;;1.20;;
36189;SDS011;22232;50.914;13.858;2024-02-15T08:13:01;1.08;;;1.00;;
36189;SDS011;22232;50.914;13.858;2024-02-15T08:15:28;2.58;;;1.30;;
36189;SDS011;22232;50.914;13.858;2024-02-15T08:17:56;2.15;;;1.00;;
36189;SDS011;22232;50.914;13.858;2024-02-15T08:20:23;1.10;;;1.00;;
36189;SDS011;22232;50.914;13.858;2024-02-15T08:22:51;3.90;;;1.00;;
36189;SDS011;22232;50.914;13.858;2024-02-15T08:25:19;3.13;;;0.93;;
36189;SDS011;22232;50.914;13.858;2024-02-15T08:27:47;0.77;;;0.77;;
36189;SDS011;22232;50.914;13.858;2024-02-15T08:30:17;0.80;;;0.80;;
36189;SDS011;22232;50.914;13.858;2024-02-15T08:32:51;0.80;;;0.80;;
36189;SDS011;22232;50.914;13.858;2024-02-15T08:35:22;0.85;;;0.75;;
36189;SDS011;22232;50.914;13.858;2024-02-15T08:37:50;0.70;;;0.70;;
36189;SDS011;22232;50.914;13.858;2024-02-15T08:40:20;0.68;;;0.68;;
36189;SDS011;22232;50.914;13.858;2024-02-15T08:42:53;0.70;;;0.70;;
36189;SDS011;22232;50.914;13.858;2024-02-15T08:45:20;0.80;;;0.80;;
36189;SDS011;22232;50.914;13.858;2024-02-15T08:47:48;0.90;;;0.60;;
36189;SDS011;22232;50.914;13.858;2024-02-15T08:50:20;1.45;;;0.60;;
36189;SDS011;22232;50.914;13.858;2024-02-15T08:52:50;0.60;;;0.50;;
36189;SDS011;22232;50.914;13.858;2024-02-15T08:55:18;0.57;;;0.57;;
36189;SDS011;22232;50.914;13.858;2024-02-15T08:57:47;0.60;;;0.60;;
36189;SDS011;22232;50.914;13.858;2024-02-15T09:00:15;0.80;;;0.80;;
36189;SDS011;22232;50.914;13.858;2024-02-15T09:02:47;0.50;;;0.50;;
36189;SDS011;22232;50.914;13.858;2024-02-15T09:05:20;0.65;;;0.60;;
36189;SDS011;22232;50.914;13.858;2024-02-15T09:07:49;0.60;;;0.50;;
36189;SDS011;22232;50.914;13.858;2024-02-15T09:10:20;1.73;;;0.85;;
36189;SDS011;22232;50.914;13.858;2024-02-15T09:12:49;0.60;;;0.60;;
36189;SDS011;22232;50.914;13.858;2024-02-15T09:15:17;0.70;;;0.70;;
36189;SDS011;22232;50.914;13.858;2024-02-15T09:17:45;0.63;;;0.60;;
36189;SDS011;22232;50.914;13.858;2024-02-15T09:20:15;0.75;;;0.70;;
36189;SDS011;22232;50.914;13.858;2024-02-15T09:22:49;2.40;;;0.60;;
36189;SDS011;22232;50.914;13.858;2024-02-15T09:25:18;1.05;;;0.50;;
36189;SDS011;22232;50.914;13.858;2024-02-15T09:27:46;0.50;;;0.50;;
36189;SDS011;22232;50.914;13.858;2024-02-15T09:30:14;0.60;;;0.60;;
36189;SDS011;22232;50.914;13.858;2024-02-15T09:32:45;1.00;;;0.80;;
36189;SDS011;22232;50.914;13.858;2024-02-15T09:35:13;1.35;;;0.60;;
36189;SDS011;22232;50.914;13.858;2024-02-15T09:37:45;1.23;;;0.70;;
36189;SDS011;22232;50.914;13.858;2024-02-15T09:40:17;0.93;;;0.70;;
36189;SDS011;22232;50.914;13.858;2024-02-15T09:42:47;0.82;;;0.60;;
36189;SDS011;22232;50.914;13.858;2024-02-15T09:45:15;0.50;;;0.50;;
36189;SDS011;22232;50.914;13.858;2024-02-15T09:47:44;1.35;;;0.98;;
36189;SDS011;22232;50.914;13.858;2024-02-15T09:50:14;1.25;;;0.90;;
36189;SDS011;22232;50.914;13.858;2024-02-15T09:52:48;0.80;;;0.80;;
36189;SDS011;22232;50.914;13.858;2024-02-15T09:55:18;0.63;;;0.63;;
36189;SDS011;22232;50.914;13.858;2024-02-15T09:57:46;0.60;;;0.60;;
36189;SDS011;22232;50.914;13.858;2024-02-15T10:00:14;2.47;;;0.98;;
36189;SDS011;22232;50.914;13.858;2024-02-15T10:02:46;1.27;;;0.85;;
36189;SDS011;22232;50.914;13.858;2024-02-15T10:05:16;0.80;;;0.80;;
36189;SDS011;22232;50.914;13.858;2024-02-15T10:07:45;1.00;;;0.82;;
36189;SDS011;22232;50.914;13.858;2024-02-15T10:10:23;0.80;;;0.80;;
36189;SDS011;22232;50.914;13.858;2024-02-15T10:12:53;1.00;;;0.73;;
36189;SDS011;22232;50.914;13.858;2024-02-15T10:15:32;0.60;;;0.60;;
36189;SDS011;22232;50.914;13.858;2024-02-15T10:18:02;0.73;;;0.60;;
36189;SDS011;22232;50.914;13.858;2024-02-15T10:20:39;0.60;;;0.60;;
36189;SDS011;22232;50.914;13.858;2024-02-15T10:25:39;0.43;;;0.43;;
36189;SDS011;22232;50.914;13.858;2024-02-15T10:28:09;2.20;;;0.80;;
36189;SDS011;22232;50.914;13.858;2024-02-15T10:30:38;0.57;;;0.57;;
36189;SDS011;22232;50.914;13.858;2024-02-15T10:36:10;0.65;;;0.52;;
36189;SDS011;22232;50.914;13.858;2024-02-15T10:38:38;0.55;;;0.55;;
36189;SDS011;22232;50.914;13.858;2024-02-15T10:41:07;1.35;;;0.68;;
36189;SDS011;22232;50.914;13.858;2024-02-15T10:43:39;0.52;;;0.52;;
36189;SDS011;22232;50.914;13.858;2024-02-15T10:46:12;1.97;;;0.73;;
36189;SDS011;22232;50.914;13.858;2024-02-15T10:48:40;0.85;;;0.50;;
36189;SDS011;22232;50.914;13.858;2024-02-15T10:51:09;0.60;;;0.50;;
36189;SDS011;22232;50.914;13.858;2024-02-15T10:53:39;0.50;;;0.50;;
36189;SDS011;22232;50.914;13.858;2024-02-15T10:56:17;0.77;;;0.70;;
36189;SDS011;22232;50.914;13.858;2024-02-15T10:58:50;1.52;;;1.02;;
36189;SDS011;22232;50.914;13.858;2024-02-15T11:01:22;0.52;;;0.52;;
36189;SDS011;22232;50.914;13.858;2024-02-15T11:03:57;0.80;;;0.80;;
36189;SDS011;22232;50.914;13.858;2024-02-15T11:06:30;0.60;;;0.60;;
36189;SDS011;22232;50.914;13.858;2024-02-15T11:09:02;0.55;;;0.55;;
36189;SDS011;22232;50.914;13.858;2024-02-15T11:11:33;0.47;;;0.45;;
36189;SDS011;22232;50.914;13.858;2024-02-15T11:17:02;0.40;;;0.40;;
36189;SDS011;22232;50.914;13.858;2024-02-15T11:22:10;0.95;;;0.80;;
36189;SDS011;22232;50.914;13.858;2024-02-15T11:24:51;1.20;;;1.02;;
36189;SDS011;22232;50.914;13.858;2024-02-15T11:27:29;2.03;;;0.82;;
36189;SDS011;22232;50.914;13.858;2024-02-15T11:29:59;0.70;;;0.70;;
36189;SDS011;22232;50.914;13.858;2024-02-15T11:35:08;1.30;;;1.20;;
36189;SDS011;22232;50.914;13.858;2024-02-15T11:37:50;1.08;;;1.00;;
36189;SDS011;22232;50.914;13.858;2024-02-15T11:42:54;2.63;;;0.95;;
36189;SDS011;22232;50.914;13.858;2024-02-15T11:45:25;2.92;;;1.00;;
36189;SDS011;22232;50.914;13.858;2024-02-15T11:47:59;0.75;;;0.75;;
36189;SDS011;22232;50.914;13.858;2024-02-15T11:50:27;1.05;;;0.90;;
36189;SDS011;22232;50.914;13.858;2024-02-15T11:53:01;0.82;;;0.80;;
36189;SDS011;22232;50.914;13.858;2024-02-15T11:55:38;2.92;;;1.10;;
36189;SDS011;22232;50.914;13.858;2024-02-15T11:58:08;1.35;;;1.05;;
36189;SDS011;22232;50.914;13.858;2024-02-15T12:00:39;1.88;;;1.10;;
36189;SDS011;22232;50.914;13.858;2024-02-15T12:03:26;1.00;;;0.90;;
36189;SDS011;22232;50.914;13.858;2024-02-15T12:06:30;1.07;;;1.00;;
36189;SDS011;22232;50.914;13.858;2024-02-15T12:09:18;1.00;;;0.95;;
36189;SDS011;22232;50.914;13.858;2024-02-15T12:12:06;1.20;;;1.10;;
36189;SDS011;22232;50.914;13.858;2024-02-15T12:15:01;1.30;;;1.20;;
36189;SDS011;22232;50.914;13.858;2024-02-15T12:17:49;1.35;;;1.25;;
36189;SDS011;22232;50.914;13.858;2024-02-15T12:20:35;1.15;;;1.05;;
36189;SDS011;22232;50.914;13.858;2024-02-15T12:23:03;2.13;;;0.90;;
36189;SDS011;22232;50.914;13.858;2024-02-15T12:25:35;1.65;;;0.90;;
36189;SDS011;22232;50.914;13.858;2024-02-15T12:28:03;1.13;;;0.93;;
36189;SDS011;22232;50.914;13.858;2024-02-15T12:30:33;0.88;;;0.60;;
36189;SDS011;22232;50.914;13.858;2024-02-15T12:33:11;1.35;;;0.80;;
36189;SDS011;22232;50.914;13.858;2024-02-15T12:35:41;2.03;;;0.80;;
36189;SDS011;22232;50.914;13.858;2024-02-15T12:38:12;0.75;;;0.75;;
36189;SDS011;22232;50.914;13.858;2024-02-15T12:40:44;2.80;;;1.00;;
36189;SDS011;22232;50.914;13.858;2024-02-15T12:43:15;0.88;;;0.88;;
36189;SDS011;22232;50.914;13.858;2024-02-15T12:45:43;2.17;;;0.95;;
36189;SDS011;22232;50.914;13.858;2024-02-15T12:48:10;1.05;;;0.93;;
36189;SDS011;22232;50.914;13.858;2024-02-15T12:50:38;0.63;;;0.63;;
36189;SDS011;22232;50.914;13.858;2024-02-15T12:53:07;0.80;;;0.80;;
36189;SDS011;22232;50.914;13.858;2024-02-15T12:55:35;0.73;;;0.60;;
36189;SDS011;22232;50.914;13.858;2024-02-15T12:58:06;2.17;;;0.70;;
36189;SDS011;22232;50.914;13.858;2024-02-15T13:00:41;0.77;;;0.70;;
36189;SDS011;22232;50.914;13.858;2024-02-15T13:03:09;0.73;;;0.70;;
36189;SDS011;22232;50.914;13.858;2024-02-15T13:05:42;1.10;;;0.50;;
36189;SDS011;22232;50.914;13.858;2024-02-15T13:08:11;2.05;;;0.50;;
36189;SDS011;22232;50.914;13.858;2024-02-15T13:10:42;1.50;;;0.50;;
36189;SDS011;22232;50.914;13.858;2024-02-15T13:13:10;0.68;;;0.43;;
36189;SDS011;22232;50.914;13.858;2024-02-15T13:15:38;0.50;;;0.40;;
36189;SDS011;22232;50.914;13.858;2024-02-15T13:18:06;0.50;;;0.50;;
36189;SDS011;22232;50.914;13.858;2024-02-15T13:20:37;0.75;;;0.60;;
36189;SDS011;22232;50.914;13.858;2024-02-15T13:23:07;0.40;;;0.40;;
36189;SDS011;22232;50.914;13.858;2024-02-15T13:25:37;0.43;;;0.40;;
36189;SDS011;22232;50.914;13.858;2024-02-15T13:28:08;1.13;;;0.60;;
36189;SDS011;22232;50.914;13.858;2024-02-15T13:30:41;1.33;;;0.60;;
36189;SDS011;22232;50.914;13.858;2024-02-15T13:33:12;1.42;;;0.75;;
36189;SDS011;22232;50.914;13.858;2024-02-15T13:35:44;0.43;;;0.43;;
36189;SDS011;22232;50.914;13.858;2024-02-15T13:38:12;1.20;;;0.57;;
36189;SDS011;22232;50.914;13.858;2024-02-15T13:40:50;0.75;;;0.60;;
36189;SDS011;22232;50.914;13.858;2024-02-15T13:43:19;1.98;;;0.60;;
36189;SDS011;22232;50.914;13.858;2024-02-15T13:45:46;0.82;;;0.50;;
36189;SDS011;22232;50.914;13.858;2024-02-15T13:48:15;0.90;;;0.60;;
36189;SDS011;22232;50.914;13.858;2024-02-15T13:50:43;0.77;;;0.60;;
36189;SDS011;22232;50.914;13.858;2024-02-15T13:53:12;0.57;;;0.50;;
36189;SDS011;22232;50.914;13.858;2024-02-15T13:55:41;0.98;;;0.77;;
36189;SDS011;22232;50.914;13.858;2024-02-15T13:58:09;0.63;;;0.60;;
36189;SDS011;22232;50.914;13.858;2024-02-15T14:00:40;3.20;;;2.00;;
36189;SDS011;22232;50.914;13.858;2024-02-15T14:03:11;7.13;;;4.38;;
36189;SDS011;22232;50.914;13.858;2024-02-15T14:05:39;4.60;;;3.38;;
36189;SDS011;22232;50.914;13.858;2024-02-15T14:08:09;6.22;;;3.83;;
36189;SDS011;22232;50.914;13.858;2024-02-15T14:10:38;6.15;;;4.10;;
36189;SDS011;22232;50.914;13.858;2024-02-15T14:13:06;6.85;;;4.10;;
36189;SDS011;22232;50.914;13.858;2024-02-15T14:15:36;4.40;;;3.15;;
36189;SDS011;22232;50.914;13.858;2024-02-15T14:18:11;5.45;;;3.67;;
36189;SDS011;22232;50.914;13.858;2024-02-15T14:20:46;5.65;;;4.45;;
36189;SDS011;22232;50.914;13.858;2024-02-15T14:23:16;7.40;;;4.90;;
36189;SDS011;22232;50.914;13.858;2024-02-15T14:25:44;8.52;;;5.07;;
36189;SDS011;22232;50.914;13.858;2024-02-15T14:28:13;9.57;;;4.70;;
36189;SDS011;22232;50.914;13.858;2024-02-15T14:30:42;11.15;;;5.53;;
36189;SDS011;22232;50.914;13.858;2024-02-15T14:33:29;9.27;;;4.80;;
36189;SDS011;22232;50.914;13.858;2024-02-15T14:36:00;8.10;;;4.95;;
36189;SDS011;22232;50.914;13.858;2024-02-15T14:38:28;8.05;;;4.53;;
36189;SDS011;22232;50.914;13.858;2024-02-15T14:40:56;11.55;;;5.60;;
36189;SDS011;22232;50.914;13.858;2024-02-15T14:43:27;9.52;;;4.95;;
36189;SDS011;22232;50.914;13.858;2024-02-15T14:45:56;7.95;;;5.63;;
36189;SDS011;22232;50.914;13.858;2024-02-15T14:48:25;9.80;;;6.28;;
36189;SDS011;22232;50.914;13.858;2024-02-15T14:50:53;10.05;;;6.72;;
36189;SDS011;22232;50.914;13.858;2024-02-15T14:53:24;11.70;;;7.15;;
36189;SDS011;22232;50.914;13.858;2024-02-15T14:55:51;12.40;;;7.40;;
36189;SDS011;22232;50.914;13.858;2024-02-15T14:58:20;12.30;;;7.20;;
36189;SDS011;22232;50.914;13.858;2024-02-15T15:00:49;12.00;;;7.60;;
36189;SDS011;22232;50.914;13.858;2024-02-15T15:03:17;13.55;;;8.82;;
36189;SDS011;22232;50.914;13.858;2024-02-15T15:05:48;11.43;;;7.55;;
36189;SDS011;22232;50.914;13.858;2024-02-15T15:08:34;10.68;;;7.43;;
36189;SDS011;22232;50.914;13.858;2024-02-15T15:11:21;10.38;;;6.82;;